Time;durP1;ratioP1;P1;durP2;ratioP2;P2;SDS_P1;SDS_P2;PMS_P1;PMS_P2;Temp;Humidity;BMP_temperature;BMP_pressure;BME280_temperature;BME280_humidity;BME280_pressure;Samples;Min_cycle;Max_cycle;Signal;HPM_P1;HPM_P2
2022/02/07 00:00:05;;;;;;;31.40;3.00;;;;;;;4.61;76.75;100870.78;5041060;28;20160;-41
2022/02/07 00:02:50;;;;;;;34.10;3.88;;;;;;;4.61;78.59;100867.28;5040247;28;20394;-41
2022/02/07 00:05:21;;;;;;;36.65;3.72;;;;;;;4.48;81.42;100858.75;5042998;28;20695;-41
2022/02/07 00:07:46;;;;;;;39.97;3.38;;;;;;;4.35;82.31;100880.34;5043831;28;20030;-40
2022/02/07 00:10:11;;;;;;;28.67;2.92;;;;;;;4.27;82.10;100883.72;5043416;28;20076;-40
2022/02/07 00:12:37;;;;;;;33.90;2.80;;;;;;;4.29;81.02;100891.53;5038264;28;20033;-45
2022/02/07 00:15:03;;;;;;;36.30;3.47;;;;;;;4.28;80.91;100900.53;5036127;28;20033;-42
2022/02/07 00:17:29;;;;;;;37.60;4.22;;;;;;;4.26;81.91;100905.97;5037010;28;20085;-42
2022/02/07 00:19:57;;;;;;;32.47;2.60;;;;;;;4.28;82.80;100911.19;5034851;28;20120;-41
2022/02/07 00:22:22;;;;;;;;;;;;;;;4.28;83.06;100917.34;5034586;28;20084;-42
2022/02/07 00:24:48;;;;;;;37.20;3.65;;;;;;;4.29;83.98;100931.50;5034008;28;20384;-42
2022/02/07 00:27:13;;;;;;;24.45;2.53;;;;;;;4.34;81.33;100921.28;5033822;28;20080;-42
2022/02/07 00:29:38;;;;;;;42.28;3.40;;;;;;;4.53;79.50;100936.41;5033007;28;20037;-42
2022/02/07 00:32:04;;;;;;;35.85;2.95;;;;;;;4.55;79.08;100940.63;5032505;28;20021;-41
2022/02/07 06:17:14;;;;;;;26.42;3.80;;;;;;;5.32;76.60;101898.81;5069738;28;20913;-46
2022/02/07 06:19:39;;;;;;;42.50;3.65;;;;;;;5.31;76.68;101897.13;5059664;28;20040;-45
2022/02/07 06:22:05;;;;;;;33.75;2.90;;;;;;;5.29;76.92;101899.91;5050222;28;20986;-45
2022/02/07 06:24:30;;;;;;;35.42;3.03;;;;;;;5.33;77.10;101901.38;5049579;28;20033;-45
2022/02/07 06:26:56;;;;;;;51.67;4.20;;;;;;;5.39;76.50;101910.72;5049777;28;20029;-45
2022/02/07 06:29:22;;;;;;;30.85;3.30;;;;;;;5.42;76.56;101916.66;5050078;28;20108;-45
2022/02/07 06:31:47;;;;;;;35.03;2.85;;;;;;;5.48;76.49;101920.69;5049473;28;20116;-44
2022/02/07 06:34:13;;;;;;;30.33;3.05;;;;;;;5.49;76.60;101933.88;5048842;28;20372;-44
2022/02/07 06:36:39;;;;;;;36.67;3.95;;;;;;;5.57;76.04;101943.97;5046150;28;20056;-45
2022/02/07 06:39:04;;;;;;;55.53;4.25;;;;;;;5.61;76.21;101949.91;5045149;28;20071;-45
2022/02/07 06:41:30;;;;;;;28.30;2.88;;;;;;;5.64;76.62;101955.00;5041566;28;20096;-44
2022/02/07 06:43:55;;;;;;;37.70;4.32;;;;;;;5.67;76.66;101970.78;5033826;28;20389;-45
2022/02/07 06:46:20;;;;;;;28.38;2.85;;;;;;;5.67;77.18;101984.16;5036346;28;20121;-46
2022/02/07 06:48:46;;;;;;;37.08;4.32;;;;;;;5.76;76.02;101988.75;5044767;28;20116;-47
2022/02/07 06:51:12;;;;;;;40.17;4.05;;;;;;;5.78;76.21;101989.47;5035044;28;20413;-45
2022/02/07 06:53:38;;;;;;;31.63;3.53;;;;;;;5.77;76.04;101995.81;5044899;28;20346;-44
2022/02/07 06:56:04;;;;;;;33.08;3.25;;;;;;;5.79;76.24;102009.88;5033574;28;20503;-46
2022/02/07 06:58:30;;;;;;;42.20;4.55;;;;;;;5.79;76.97;102020.53;5043240;28;20711;-46
2022/02/07 07:00:55;;;;;;;38.60;3.75;;;;;;;5.86;76.26;102035.13;5036225;28;20034;-46
2022/02/07 07:03:21;;;;;;;44.67;3.67;;;;;;;5.84;76.86;102039.72;5034603;28;20140;-47
2022/02/07 07:05:49;;;;;;;48.35;4.10;;;;;;;5.83;76.40;102040.72;5036353;28;20091;-45
2022/02/07 07:08:15;;;;;;;38.38;3.67;;;;;;;5.85;76.45;102041.47;5012996;28;20117;-44
2022/02/07 07:10:41;;;;;;;39.58;3.72;;;;;;;5.84;76.58;102037.06;5033092;28;20518;-45
2022/02/07 07:13:13;;;;;;;39.78;3.40;;;;;;;5.84;76.36;102047.75;5028891;28;20036;-45
2022/02/07 07:15:58;;;;;;;39.40;4.45;;;;;;;5.86;76.81;102048.47;5013190;28;20050;-45
2022/02/07 07:18:23;;;;;;;44.38;3.92;;;;;;;5.87;76.40;102049.34;5027942;28;20045;-47
2022/02/07 07:20:49;;;;;;;33.40;3.83;;;;;;;5.89;76.64;102053.56;5033970;28;20091;-47
2022/02/07 07:23:14;;;;;;;44.55;4.07;;;;;;;5.93;76.22;102054.22;5048350;28;20469;-47
2022/02/07 07:25:42;;;;;;;37.83;3.55;;;;;;;5.96;76.26;102059.34;5045355;28;20466;-44
2022/02/07 07:28:11;;;;;;;37.17;4.80;;;;;;;5.96;76.38;102079.88;5017098;28;20068;-47
2022/02/07 07:30:41;;;;;;;42.45;3.42;;;;;;;5.93;76.63;102092.50;5015448;28;20470;-46
2022/02/07 07:33:12;;;;;;;37.65;3.45;;;;;;;5.97;76.47;102092.25;5015315;28;20490;-44
2022/02/07 07:35:38;;;;;;;41.63;3.78;;;;;;;5.97;76.18;102110.94;5014916;28;20026;-46
2022/02/07 07:38:03;;;;;;;43.03;4.00;;;;;;;5.96;76.27;102115.44;5015128;28;20041;-47
2022/02/07 07:40:28;;;;;;;49.90;5.53;;;;;;;6.01;75.56;102117.78;5014994;28;20034;-45
2022/02/07 07:42:55;;;;;;;38.33;3.60;;;;;;;6.06;75.35;102119.09;5014784;28;20569;-46
2022/02/07 07:45:25;;;;;;;37.90;3.85;;;;;;;6.06;75.68;102139.63;5015301;28;20033;-46
2022/02/07 07:47:57;;;;;;;41.63;4.30;;;;;;;6.05;75.68;102137.91;5015427;28;20034;-44
2022/02/07 07:50:31;;;;;;;35.35;3.65;;;;;;;6.07;76.35;102147.53;5015679;28;20454;-45
2022/02/07 08:03:16;;;;;;;31.17;2.55;;;;;;;6.19;75.59;102166.22;5014583;28;20049;-45
2022/02/07 08:08:20;;;;;;;39.05;4.10;;;;;;;6.20;75.82;102195.53;5014535;28;20520;-46
2022/02/07 08:10:52;;;;;;;34.97;4.90;;;;;;;6.21;75.87;102196.38;5014356;28;20125;-49
2022/02/07 08:13:18;;;;;;;28.60;3.10;;;;;;;6.27;75.02;102195.91;5014414;28;20042;-48
2022/02/07 08:15:44;;;;;;;33.70;4.15;;;;;;;6.23;74.96;102199.78;5014586;28;20058;-46
2022/02/07 08:18:10;;;;;;;30.55;3.13;;;;;;;6.30;74.59;102196.50;5014394;28;20083;-46
2022/02/07 08:20:35;;;;;;;36.67;4.68;;;;;;;6.28;74.86;102210.97;5012978;28;20505;-46
2022/02/07 08:23:05;;;;;;;40.70;3.70;;;;;;;6.34;74.15;102213.16;5014688;28;20033;-46
2022/02/07 08:25:31;;;;;;;24.33;2.70;;;;;;;6.30;74.95;102222.41;5017771;28;20041;-46
2022/02/07 08:27:56;;;;;;;30.10;3.15;;;;;;;6.25;75.67;102225.44;5034395;28;20037;-46
2022/02/07 08:30:22;;;;;;;31.27;2.75;;;;;;;6.24;75.67;102218.38;5034304;28;20131;-46
2022/02/07 08:32:47;;;;;;;29.15;2.60;;;;;;;6.21;75.47;102215.94;5033938;28;20397;-46
2022/02/07 08:35:12;;;;;;;30.45;3.03;;;;;;;6.23;74.96;102211.31;5034077;28;20064;-45
2022/02/07 08:37:38;;;;;;;40.25;3.22;;;;;;;6.16;76.07;102215.44;5032716;28;20469;-46
2022/02/07 08:40:04;;;;;;;20.90;2.85;;;;;;;6.23;74.43;102216.66;5032835;28;20025;-46
2022/02/07 08:42:29;;;;;;;34.58;3.30;;;;;;;6.25;74.73;102233.44;5032538;28;20473;-46
2022/02/07 08:44:54;;;;;;;38.20;3.15;;;;;;;6.29;74.45;102237.59;5033951;28;20033;-46
2022/02/07 08:47:21;;;;;;;39.75;3.30;;;;;;;6.35;74.10;102245.13;5033984;28;20473;-47
2022/02/07 08:49:46;;;;;;;35.67;3.28;;;;;;;6.49;73.30;102259.25;5033804;28;20037;-45
2022/02/07 08:52:13;;;;;;;26.77;2.85;;;;;;;6.51;73.95;102276.03;5033688;28;20548;-47
2022/02/07 08:54:38;;;;;;;29.95;2.65;;;;;;;6.58;72.84;102278.09;5033734;28;20049;-45
2022/02/07 08:57:18;;;;;;;25.92;2.90;;;;;;;6.62;72.38;102280.53;5015506;28;20061;-45
2022/02/07 09:00:22;;;;;;;33.42;3.90;;;;;;;6.57;74.07;102284.41;5013889;28;20030;-45
2022/02/07 09:07:45;;;;;;;32.65;4.40;;;;;;;6.64;76.62;102316.06;5013808;28;20045;-47
2022/02/07 09:10:11;;;;;;;31.65;2.83;;;;;;;6.67;76.75;102316.66;5013697;28;20040;-45
2022/02/07 09:12:40;;;;;;;40.03;3.65;;;;;;;6.63;77.25;102327.69;5013539;28;20389;-47
2022/02/07 09:15:27;;;;;;;61.00;6.30;;;;;;;6.60;77.60;102328.78;5013452;28;20029;-46
2022/02/07 09:17:50;;;;;;;34.55;2.92;;;;;;;6.57;77.01;102345.09;5013355;28;20038;-45
2022/02/07 09:20:16;;;;;;;36.13;3.33;;;;;;;6.51;77.42;102337.53;5013321;28;20025;-48
2022/02/07 09:22:41;;;;;;;35.53;3.00;;;;;;;6.52;76.63;102345.44;5013495;28;20175;-46
2022/02/07 09:25:07;;;;;;;30.13;3.70;;;;;;;6.53;77.85;102344.47;5015252;28;20026;-45
2022/02/07 09:27:32;;;;;;;29.33;3.42;;;;;;;6.53;76.82;102347.16;5033038;28;20088;-46
2022/02/07 09:29:58;;;;;;;34.08;2.92;;;;;;;6.55;77.14;102360.41;5031890;28;20018;-47
2022/02/07 09:32:23;;;;;;;37.85;5.53;;;;;;;6.65;76.51;102361.38;5033210;28;20025;-49
2022/02/07 09:34:48;;;;;;;36.35;3.13;;;;;;;6.75;75.12;102359.72;5033002;28;20028;-45
2022/02/07 09:37:14;;;;;;;40.13;3.13;;;;;;;6.71;75.67;102374.28;5032624;28;20025;-45
2022/02/07 09:39:40;;;;;;;37.88;3.40;;;;;;;6.67;75.99;102380.00;5032689;28;20036;-45
2022/02/07 09:42:05;;;;;;;30.83;2.72;;;;;;;6.65;76.78;102388.16;5029996;28;20029;-45
2022/02/07 09:44:41;;;;;;;35.10;3.72;;;;;;;6.64;77.45;102381.09;5032691;28;20064;-45
2022/02/07 09:47:10;;;;;;;37.42;3.13;;;;;;;6.67;77.26;102394.22;5031659;28;20021;-45
2022/02/07 09:49:35;;;;;;;26.15;2.47;;;;;;;6.67;77.28;102398.75;5031359;28;20037;-47
2022/02/07 09:52:03;;;;;;;28.85;3.05;;;;;;;6.74;77.03;102406.19;5032527;28;20070;-48
2022/02/07 09:54:29;;;;;;;33.92;3.35;;;;;;;6.65;77.05;102425.59;5032899;28;20021;-47
2022/02/07 09:56:54;;;;;;;49.70;3.67;;;;;;;6.71;77.49;102438.50;5016190;28;20382;-46
2022/02/07 09:59:26;;;;;;;28.05;2.85;;;;;;;6.72;76.68;102450.06;5012870;28;20385;-46
2022/02/07 10:01:54;;;;;;;28.05;3.53;;;;;;;6.73;76.51;102441.91;5013055;28;20030;-47
2022/02/07 10:04:28;;;;;;;42.58;4.07;;;;;;;6.82;75.78;102435.88;5012713;28;20041;-44
2022/02/07 10:09:49;;;;;;;32.80;3.50;;;;;;;7.44;74.43;102444.44;5012569;28;20045;-43
2022/02/07 10:15:05;;;;;;;24.27;3.65;;;;;;;7.61;71.21;102440.41;5012657;28;20497;-46
2022/02/07 10:41:54;;;;;;;30.20;2.65;;;;;;;7.67;73.14;102499.72;5012664;28;20531;-46
2022/02/07 10:45:12;;;;;;;30.15;2.35;;;;;;;7.83;71.56;102494.00;5012226;28;20069;-45
2022/02/07 10:50:05;;;;;;;22.60;2.80;;;;;;;8.12;69.92;102497.00;5012420;28;20042;-45
2022/02/07 10:52:47;;;;;;;20.83;2.40;;;;;;;8.23;69.02;102500.63;5012044;28;20034;-47
2022/02/07 10:55:24;;;;;;;27.00;3.63;;;;;;;8.08;70.08;102508.09;5013176;28;20030;-44
2022/02/07 10:57:51;;;;;;;36.55;5.45;;;;;;;8.24;70.41;102496.94;5031917;28;20034;-45
2022/02/07 11:00:23;;;;;;;26.40;2.90;;;;;;;8.77;69.70;102503.28;5032059;28;20048;-47
2022/02/07 11:03:01;;;;;;;24.60;2.50;;;;;;;9.28;66.74;102498.94;5032199;28;20029;-46
2022/02/07 11:05:30;;;;;;;38.05;4.60;;;;;;;8.93;67.02;102489.41;5035794;28;20057;-44
2022/02/07 11:08:06;;;;;;;28.42;3.13;;;;;;;9.18;67.60;102489.97;5035869;28;20076;-44
2022/02/07 11:11:04;;;;;;;40.85;3.88;;;;;;;9.64;66.78;102499.41;5034571;28;20025;-45
2022/02/07 11:16:05;;;;;;;23.15;3.00;;;;;;;10.65;63.75;102500.19;5035269;28;20060;-46
2022/02/07 11:18:48;;;;;;;17.65;2.40;;;;;;;11.21;60.23;102502.94;5035706;28;20036;-45
2022/02/07 11:21:22;;;;;;;19.75;2.65;;;;;;;11.63;57.45;102499.84;5035651;28;20164;-49
2022/02/07 11:30:34;;;;;;;23.05;2.13;;;;;;;11.26;58.52;102499.84;5016308;28;20193;-47
2022/02/07 11:32:59;;;;;;;23.40;3.15;;;;;;;11.39;57.46;102492.28;5016156;28;20080;-45
2022/02/07 11:35:30;;;;;;;26.15;3.35;;;;;;;11.64;56.91;102501.56;5015539;28;20029;-45
2022/02/07 11:38:01;;;;;;;34.30;4.85;;;;;;;11.17;59.68;102490.78;5015251;28;20067;-45
2022/02/07 11:40:36;;;;;;;29.17;4.05;;;;;;;10.99;60.04;102487.13;5015441;28;20033;-47
2022/02/07 11:43:11;;;;;;;28.50;3.65;;;;;;;10.38;59.73;102485.59;5014312;28;20425;-45
2022/02/07 11:45:59;;;;;;;25.58;2.42;;;;;;;10.44;60.88;102494.94;5015253;28;20029;-46
2022/02/07 11:48:44;;;;;;;;;;;;;;;10.35;59.80;102504.72;5015808;28;20481;-49
2022/02/07 11:51:11;;;;;;;24.30;2.40;;;;;;;10.21;60.96;102502.38;5015241;28;19988;-45
2022/02/07 11:53:46;;;;;;;24.10;3.25;;;;;;;10.27;60.30;102486.59;5015213;28;20034;-46
2022/02/07 11:56:43;;;;;;;25.33;3.22;;;;;;;10.21;61.41;102486.25;5024512;28;20040;-47
2022/02/07 11:59:15;;;;;;;;;;;;;;;10.27;60.36;102497.34;5034901;28;20120;-48
2022/02/07 12:02:00;;;;;;;30.30;3.10;;;;;;;10.24;60.34;102489.53;5034311;28;20353;-45
2022/02/07 12:04:28;;;;;;;24.55;2.78;;;;;;;10.48;62.35;102494.53;5034635;28;20432;-44
2022/02/07 12:07:15;;;;;;;28.55;3.00;;;;;;;10.81;60.56;102505.00;5034396;28;20095;-46
2022/02/07 12:10:14;;;;;;;18.20;2.30;;;;;;;11.55;57.97;102510.53;5034326;28;20034;-50
2022/02/07 12:15:06;;;;;;;28.60;2.70;;;;;;;11.84;56.80;102520.34;5033993;28;20036;-46
2022/02/07 12:17:45;;;;;;;20.23;2.93;;;;;;;11.99;56.89;102531.53;5034210;28;20606;-46
2022/02/07 12:20:13;;;;;;;39.42;3.22;;;;;;;11.67;57.88;102534.63;5033900;28;20276;-46
2022/02/07 12:22:54;;;;;;;26.52;2.70;;;;;;;11.20;56.55;102533.59;5033882;28;20112;-47
2022/02/07 12:25:59;;;;;;;32.10;2.92;;;;;;;10.83;58.39;102532.66;5029333;28;20021;-46
2022/02/07 12:33:22;;;;;;;29.20;2.45;;;;;;;9.93;62.41;102536.31;5014420;28;20116;-45
2022/02/07 12:35:48;;;;;;;29.48;2.63;;;;;;;9.88;62.11;102534.88;5014010;28;20030;-45
2022/02/07 12:38:13;;;;;;;17.40;3.20;;;;;;;9.68;61.80;102538.47;5013846;28;20104;-45
2022/02/07 12:40:42;;;;;;;26.48;2.80;;;;;;;9.60;63.36;102530.22;5013801;28;20088;-44
2022/02/07 12:43:10;;;;;;;21.05;2.42;;;;;;;9.78;62.67;102544.72;5013798;28;20497;-46
2022/02/07 12:45:38;;;;;;;19.20;2.25;;;;;;;9.89;62.21;102544.63;5014011;28;20053;-46
2022/02/07 12:48:08;;;;;;;27.20;2.65;;;;;;;9.92;62.52;102542.66;5013547;28;20030;-45
2022/02/07 12:50:34;;;;;;;20.30;3.15;;;;;;;10.06;61.84;102545.00;5013867;28;20117;-46
2022/02/07 12:52:59;;;;;;;27.20;2.72;;;;;;;9.97;61.44;102543.09;5013729;28;20030;-45
2022/02/07 12:55:24;;;;;;;13.90;2.17;;;;;;;10.07;60.46;102539.47;5016059;28;20407;-45
2022/02/07 12:57:50;;;;;;;31.13;2.40;;;;;;;9.70;59.06;102541.03;5033715;28;20442;-48
2022/02/07 13:00:18;;;;;;;21.85;2.47;;;;;;;9.60;59.88;102546.34;5033567;28;20029;-45
2022/02/07 13:02:45;;;;;;;19.13;2.10;;;;;;;9.43;60.55;102555.88;5033601;28;20450;-44
2022/02/07 13:05:11;;;;;;;26.98;2.60;;;;;;;9.49;61.01;102549.13;5033508;28;20112;-46
2022/02/07 13:07:42;;;;;;;14.13;2.22;;;;;;;9.53;61.23;102546.03;5032134;28;20025;-45
2022/02/07 13:10:09;;;;;;;24.67;2.53;;;;;;;9.72;61.04;102539.06;5033660;28;20033;-45
2022/02/07 13:15:29;;;;;;;21.67;2.75;;;;;;;9.30;60.30;102556.09;5032780;28;20060;-47
2022/02/07 13:18:00;;;;;;;28.85;3.10;;;;;;;9.24;61.47;102556.59;5032010;28;20477;-45
2022/02/07 13:20:26;;;;;;;26.25;2.40;;;;;;;9.53;61.42;102561.28;5032760;28;20485;-46
2022/02/07 13:23:02;;;;;;;27.52;2.70;;;;;;;9.85;59.99;102556.66;5032939;28;20022;-45
2022/02/07 13:25:42;;;;;;;24.13;2.38;;;;;;;10.25;59.53;102563.88;5030987;28;20038;-46
2022/02/07 13:28:15;;;;;;;24.42;2.78;;;;;;;10.88;58.40;102565.41;5033152;28;20109;-45
2022/02/07 13:30:43;;;;;;;22.98;2.63;;;;;;;11.46;54.46;102569.88;5032948;28;20079;-45
2022/02/07 13:33:08;;;;;;;24.27;2.50;;;;;;;11.46;54.68;102573.44;5032359;28;20090;-45
2022/02/07 13:35:40;;;;;;;24.50;2.10;;;;;;;11.31;55.50;102567.63;5032743;28;20742;-46
2022/02/07 13:38:09;;;;;;;20.10;2.78;;;;;;;11.29;55.83;102564.22;5032632;28;20040;-47
2022/02/07 13:40:40;;;;;;;28.98;3.13;;;;;;;11.60;54.51;102567.56;5032759;28;20500;-46
2022/02/07 13:43:10;;;;;;;30.38;2.95;;;;;;;11.37;54.38;102568.91;5032306;28;20033;-46
2022/02/07 13:45:35;;;;;;;19.20;3.35;;;;;;;11.47;54.88;102567.03;5032795;28;20033;-46
2022/02/07 13:48:02;;;;;;;27.70;3.58;;;;;;;11.12;54.16;102573.91;5032438;28;20038;-45
2022/02/07 13:50:29;;;;;;;31.08;3.58;;;;;;;10.83;56.55;102570.38;5032417;28;20488;-44
2022/02/07 13:52:59;;;;;;;23.50;2.33;;;;;;;10.92;56.25;102573.03;5032381;28;20036;-46
2022/02/07 13:55:40;;;;;;;34.22;2.85;;;;;;;10.77;57.20;102567.25;5027365;28;20052;-44
2022/02/07 13:58:06;;;;;;;24.45;2.03;;;;;;;10.61;57.35;102575.03;5010970;28;20419;-47
2022/02/07 14:00:35;;;;;;;27.13;2.72;;;;;;;9.98;59.16;102571.69;5012511;28;20164;-47
2022/02/07 14:03:15;;;;;;;24.75;2.30;;;;;;;10.06;59.17;102574.59;5012674;28;20541;-49
2022/02/07 14:05:45;;;;;;;24.60;2.92;;;;;;;9.99;59.56;102562.66;5012733;28;20156;-47
2022/02/07 14:08:11;;;;;;;25.55;2.10;;;;;;;10.42;58.72;102558.84;5012567;28;20104;-47
2022/02/07 14:10:38;;;;;;;27.70;2.78;;;;;;;10.81;57.46;102558.88;5012629;28;20030;-50
2022/02/07 14:13:09;;;;;;;23.92;2.45;;;;;;;10.95;55.60;102571.91;5012672;28;20030;-47
2022/02/07 14:15:35;;;;;;;21.38;2.47;;;;;;;11.28;56.82;102572.47;5012341;28;20022;-47
2022/02/07 14:18:07;;;;;;;30.85;2.90;;;;;;;11.45;55.08;102571.72;5012680;28;20017;-46
2022/02/07 14:20:34;;;;;;;23.92;3.00;;;;;;;11.54;55.43;102576.25;5012730;28;20113;-47
2022/02/07 14:23:00;;;;;;;22.13;2.33;;;;;;;11.89;54.43;102571.19;5012483;28;20057;-46
2022/02/07 14:25:29;;;;;;;22.90;2.85;;;;;;;12.12;53.75;102577.91;5018044;28;20053;-46
2022/02/07 14:27:59;;;;;;;15.95;2.15;;;;;;;11.15;54.10;102576.31;5032125;28;20045;-47
2022/02/07 14:30:26;;;;;;;24.63;2.58;;;;;;;11.45;54.84;102584.34;5032456;28;20035;-45
2022/02/07 14:32:54;;;;;;;21.45;2.90;;;;;;;11.11;55.52;102583.00;5030646;28;20036;-45
2022/02/07 14:35:20;;;;;;;24.90;2.67;;;;;;;10.92;56.11;102574.91;5032035;28;20029;-48
2022/02/07 14:37:45;;;;;;;26.52;2.33;;;;;;;11.21;55.03;102577.56;5033688;28;20065;-49
2022/02/07 14:40:11;;;;;;;21.08;2.22;;;;;;;11.48;55.24;102582.22;5036295;28;20052;-46
2022/02/07 14:42:37;;;;;;;34.88;2.50;;;;;;;10.98;54.21;102582.44;5036080;28;20037;-45
2022/02/07 14:50:06;;;;;;;22.25;2.67;;;;;;;10.59;55.91;102571.63;5035670;28;20091;-48
2022/02/07 14:52:31;;;;;;;20.13;2.70;;;;;;;10.28;56.11;102568.16;5034547;28;20033;-46
2022/02/07 14:54:56;;;;;;;20.58;2.75;;;;;;;9.80;56.64;102574.19;5033775;28;20026;-46
2022/02/07 14:57:22;;;;;;;19.75;2.50;;;;;;;9.93;57.29;102576.66;5015653;28;20030;-45
2022/02/07 14:59:47;;;;;;;18.38;2.95;;;;;;;10.16;57.06;102577.28;5031994;28;20112;-47
2022/02/07 15:02:13;;;;;;;21.92;2.67;;;;;;;10.04;57.00;102571.16;5023405;28;20025;-47
2022/02/07 15:04:38;;;;;;;28.33;2.45;;;;;;;9.65;57.54;102576.38;5035489;28;20025;-46
2022/02/07 15:07:04;;;;;;;19.92;3.83;;;;;;;9.20;58.40;102576.66;5033327;28;20033;-45
2022/02/07 15:09:29;;;;;;;19.83;2.70;;;;;;;8.33;59.21;102587.41;5033248;28;20033;-45
2022/02/07 15:11:56;;;;;;;18.20;1.95;;;;;;;8.10;60.99;102583.91;5035164;28;20033;-46
2022/02/07 15:14:22;;;;;;;21.27;2.60;;;;;;;8.38;61.34;102589.75;5033204;28;20045;-45
2022/02/07 15:16:47;;;;;;;27.52;2.55;;;;;;;8.89;60.25;102600.72;5031052;28;20050;-46
2022/02/07 15:19:13;;;;;;;17.58;1.90;;;;;;;9.30;59.10;102598.22;5015114;28;20099;-45
2022/02/07 15:21:39;;;;;;;21.17;2.17;;;;;;;9.22;58.21;102617.69;5016295;28;20113;-45
2022/02/07 15:24:04;;;;;;;25.13;2.15;;;;;;;9.02;58.48;102614.81;5014960;28;20370;-45
2022/02/07 15:26:30;;;;;;;22.58;2.67;;;;;;;8.62;58.77;102619.97;5015111;28;20129;-45
2022/02/07 15:28:58;;;;;;;21.75;1.80;;;;;;;8.55;59.55;102608.00;5015261;28;20022;-45
2022/02/07 15:31:30;;;;;;;20.60;1.83;;;;;;;8.09;60.53;102617.06;5025040;28;20026;-45
2022/02/07 15:33:55;;;;;;;34.90;3.25;;;;;;;7.76;62.39;102609.84;5034106;28;20037;-45
2022/02/07 15:36:20;;;;;;;17.88;2.10;;;;;;;7.44;62.46;102606.00;5034867;28;20025;-45
2022/02/07 15:38:46;;;;;;;16.10;2.55;;;;;;;7.37;63.14;102606.59;5034178;28;20037;-46
2022/02/07 15:41:11;;;;;;;34.67;2.10;;;;;;;7.29;63.60;102595.63;5026337;28;20543;-45
2022/02/07 15:43:37;;;;;;;16.75;2.45;;;;;;;6.99;63.82;102592.50;5018642;28;20108;-45
2022/02/07 15:46:02;;;;;;;19.90;2.08;;;;;;;6.75;64.27;102603.22;5032949;28;20171;-45
2022/02/07 15:48:29;;;;;;;15.20;2.28;;;;;;;6.80;65.02;102597.53;5032588;28;20500;-45
2022/02/07 15:50:56;;;;;;;23.90;2.17;;;;;;;6.66;64.73;102603.91;5034751;28;20029;-46
2022/02/07 15:53:22;;;;;;;23.02;2.33;;;;;;;6.71;65.55;102595.50;5027085;28;20462;-45
2022/02/07 15:55:49;;;;;;;18.90;2.75;;;;;;;6.68;66.14;102593.06;5027470;28;20068;-44
2022/02/07 15:58:14;;;;;;;23.70;1.90;;;;;;;6.64;65.43;102588.94;5020566;28;20025;-46
2022/02/07 16:00:40;;;;;;;20.10;2.28;;;;;;;6.68;65.96;102588.56;5036837;28;20028;-45
2022/02/07 16:03:05;;;;;;;22.65;2.10;;;;;;;6.70;66.16;102583.97;5054412;28;20021;-46
2022/02/07 16:05:30;;;;;;;21.33;1.98;;;;;;;6.72;66.13;102575.84;5036568;28;20389;-46
2022/02/07 16:08:00;;;;;;;18.17;2.60;;;;;;;6.66;66.19;102571.78;5034551;28;20057;-44
2022/02/07 16:10:27;;;;;;;23.08;2.47;;;;;;;6.63;66.29;102571.16;5029082;28;20486;-45
2022/02/07 16:13:02;;;;;;;25.60;2.50;;;;;;;6.58;66.34;102566.13;5031211;28;20025;-45
2022/02/07 16:15:28;;;;;;;17.60;1.70;;;;;;;6.55;66.74;102574.38;5014144;28;20030;-46
2022/02/07 16:17:53;;;;;;;22.23;1.88;;;;;;;6.59;67.14;102571.38;5013108;28;20046;-45
2022/02/07 16:20:18;;;;;;;18.02;2.33;;;;;;;6.66;67.56;102565.56;5014633;28;20030;-45
2022/02/07 16:22:45;;;;;;;23.70;2.45;;;;;;;6.66;67.12;102574.47;5014275;28;20034;-45
2022/02/07 16:25:11;;;;;;;23.25;2.88;;;;;;;6.66;66.45;102566.44;5014535;28;20037;-46
2022/02/07 16:27:36;;;;;;;23.67;2.50;;;;;;;6.71;66.85;102572.28;5012934;28;20030;-44
2022/02/07 16:30:03;;;;;;;19.70;2.17;;;;;;;6.66;66.89;102566.44;5014049;28;20057;-45
2022/02/07 16:32:28;;;;;;;19.10;2.53;;;;;;;6.65;66.66;102575.41;5014236;28;20084;-44
2022/02/07 16:34:53;;;;;;;26.95;3.15;;;;;;;6.67;67.08;102572.66;5014236;28;20026;-44
2022/02/07 16:37:18;;;;;;;26.40;3.25;;;;;;;6.62;67.22;102581.00;5013770;28;20037;-42
2022/02/07 16:39:44;;;;;;;19.80;2.35;;;;;;;6.60;67.67;102588.28;5021122;28;20026;-44
2022/02/07 16:42:11;;;;;;;16.65;2.20;;;;;;;6.55;67.48;102580.59;5026530;28;20034;-44
2022/02/07 16:44:36;;;;;;;19.52;2.25;;;;;;;6.60;68.05;102585.59;5016029;28;20038;-45
2022/02/07 16:47:02;;;;;;;25.02;2.55;;;;;;;6.47;68.29;102587.47;5014931;28;20026;-45
2022/02/07 16:49:30;;;;;;;14.40;1.85;;;;;;;6.47;68.71;102587.47;5028565;28;20030;-46
2022/02/07 16:51:56;;;;;;;25.80;3.03;;;;;;;6.43;68.48;102591.38;5013656;28;20033;-46
2022/02/07 16:54:22;;;;;;;44.25;2.83;;;;;;;6.38;68.56;102591.69;5031676;28;20029;-45
2022/02/07 16:56:49;;;;;;;22.90;3.55;;;;;;;6.43;69.42;102594.03;5014294;28;20034;-47
2022/02/07 16:59:15;;;;;;;28.25;3.00;;;;;;;6.41;68.67;102587.94;5029586;28;20036;-44
2022/02/07 17:01:46;;;;;;;23.45;2.78;;;;;;;6.37;68.89;102581.94;5032567;28;20084;-45
2022/02/07 17:04:12;;;;;;;22.48;2.40;;;;;;;6.34;69.34;102583.00;5014706;28;20088;-45
2022/02/07 17:06:37;;;;;;;27.08;2.65;;;;;;;6.29;69.17;102585.19;5014542;28;20352;-44
2022/02/07 17:09:02;;;;;;;22.60;2.50;;;;;;;6.25;69.25;102583.69;5012727;28;20025;-44
2022/02/07 17:11:28;;;;;;;21.98;2.00;;;;;;;6.25;69.26;102589.03;5021730;28;20099;-45
2022/02/07 17:13:53;;;;;;;33.25;3.63;;;;;;;6.26;69.66;102596.09;5024232;28;20391;-46
2022/02/07 17:16:18;;;;;;;30.73;3.33;;;;;;;6.21;69.68;102592.88;5014126;28;20046;-45
2022/02/07 17:18:44;;;;;;;24.92;2.97;;;;;;;6.22;69.95;102599.97;5031517;28;20074;-46
2022/02/07 17:21:09;;;;;;;24.92;2.42;;;;;;;6.22;70.33;102589.28;5033051;28;20471;-45
2022/02/07 17:23:35;;;;;;;20.13;2.50;;;;;;;6.23;70.21;102596.31;5017548;28;20033;-44
2022/02/07 17:26:01;;;;;;;24.83;2.65;;;;;;;6.26;70.60;102597.91;5020551;28;20032;-45
2022/02/07 17:28:26;;;;;;;31.30;2.30;;;;;;;6.26;70.38;102584.53;5028697;28;20030;-44
2022/02/07 17:30:52;;;;;;;35.95;2.88;;;;;;;6.22;70.54;102589.28;5034978;28;20025;-47
2022/02/07 17:33:17;;;;;;;34.55;2.60;;;;;;;6.22;70.75;102589.28;5013499;28;20025;-45
2022/02/07 17:35:46;;;;;;;17.13;2.40;;;;;;;6.23;71.15;102580.28;5014977;28;20033;-46
2022/02/07 17:38:12;;;;;;;30.45;3.83;;;;;;;6.22;70.56;102578.56;5015843;28;20120;-46
2022/02/07 17:40:39;;;;;;;27.58;3.00;;;;;;;6.23;70.99;102580.28;5026823;28;20427;-45
2022/02/07 17:43:10;;;;;;;34.08;3.92;;;;;;;6.21;70.89;102582.19;5020373;28;20030;-45
2022/02/07 17:45:39;;;;;;;25.45;2.58;;;;;;;6.17;71.11;102574.53;5022484;28;20393;-45
2022/02/07 17:48:05;;;;;;;26.92;2.92;;;;;;;6.21;71.36;102570.66;5014870;28;20026;-45
2022/02/07 17:50:31;;;;;;;30.65;4.35;;;;;;;6.18;71.61;102571.72;5006307;28;20064;-44
2022/02/07 17:52:56;;;;;;;29.10;3.08;;;;;;;6.20;72.18;102575.16;5019906;28;20029;-46
2022/02/07 17:55:22;;;;;;;28.15;2.65;;;;;;;6.15;72.26;102571.94;5025162;28;20461;-43
2022/02/07 17:57:47;;;;;;;20.13;2.85;;;;;;;6.18;72.78;102566.38;5024805;28;20116;-43
2022/02/07 18:00:15;;;;;;;28.90;4.93;;;;;;;6.20;72.97;102559.09;5030346;28;20112;-44
2022/02/07 18:02:40;;;;;;;36.28;3.58;;;;;;;6.17;73.38;102548.66;5025275;28;20087;-46
2022/02/07 18:05:08;;;;;;;24.83;3.05;;;;;;;6.09;74.27;102553.69;5035148;28;20032;-46
2022/02/07 18:07:34;;;;;;;35.88;3.53;;;;;;;6.07;75.00;102547.59;5033903;28;20497;-46
2022/02/07 18:10:02;;;;;;;39.90;3.78;;;;;;;6.09;75.02;102543.84;5029151;28;20136;-45
2022/02/07 18:12:27;;;;;;;40.53;4.35;;;;;;;6.09;75.25;102545.69;5028477;28;20029;-45
2022/02/07 18:14:53;;;;;;;43.35;5.03;;;;;;;6.03;75.31;102548.78;5026741;28;20022;-47
2022/02/07 18:17:18;;;;;;;45.17;4.93;;;;;;;6.08;75.86;102554.63;5016905;28;20133;-46
2022/02/07 18:19:44;;;;;;;26.80;3.90;;;;;;;6.06;75.64;102552.09;5020429;28;20160;-46
2022/02/07 18:22:11;;;;;;;36.08;4.50;;;;;;;6.03;75.58;102554.13;5025344;28;20056;-47
2022/02/07 18:24:37;;;;;;;34.05;4.20;;;;;;;6.03;75.51;102556.78;5021357;28;20109;-46
2022/02/07 18:27:04;;;;;;;41.15;4.22;;;;;;;6.03;75.39;102559.47;5009076;28;20454;-45